Time;durP1;ratioP1;P1;durP2;ratioP2;P2;SDS_P1;SDS_P2;PMS_P1;PMS_P2;Temp;Humidity;BMP_temperature;BMP_pressure;BME280_temperature;BME280_humidity;BME280_pressure;Samples;Min_cycle;Max_cycle;Signal;HPM_P1;HPM_P2
2023/12/25 00:01:24;;;;;;;24.15;4.50;;;;;;;;;;5009722;28;20081;-81
2023/12/25 00:03:49;;;;;;;33.25;4.93;;;;;;;;;;5011495;28;20060;-86
2023/12/25 00:06:15;;;;;;;32.47;4.80;;;;;;;;;;5009501;28;20117;-84
2023/12/25 00:08:40;;;;;;;25.58;4.75;;;;;;;;;;4993312;28;20546;-86
2023/12/25 00:11:05;;;;;;;31.70;4.32;;;;;;;;;;4992730;28;20057;-83
2023/12/25 00:13:30;;;;;;;27.10;4.20;;;;;;;;;;5009173;28;20085;-83
2023/12/25 00:15:56;;;;;;;31.00;4.82;;;;;;;;;;5010487;28;20257;-80
2023/12/25 00:18:21;;;;;;;40.00;4.77;;;;;;;;;;5008825;28;20053;-81
2023/12/25 00:20:46;;;;;;;33.87;5.73;;;;;;;;;;5010582;28;20379;-80
2023/12/25 00:23:11;;;;;;;34.73;5.27;;;;;;;;;;5009650;28;20468;-82
2023/12/25 00:25:37;;;;;;;38.38;4.75;;;;;;;;;;5010857;28;20363;-80
2023/12/25 00:28:04;;;;;;;35.55;4.93;;;;;;;;;;5010861;28;20411;-82
2023/12/25 00:30:30;;;;;;;38.35;5.60;;;;;;;;;;5010763;28;20054;-80
2023/12/25 00:32:55;;;;;;;35.38;4.50;;;;;;;;;;5010052;28;20080;-79
2023/12/25 00:35:20;;;;;;;29.50;4.73;;;;;;;;;;5014340;28;20022;-80
2023/12/25 00:37:45;;;;;;;35.50;4.95;;;;;;;;;;5014384;28;20277;-80
2023/12/25 00:40:11;;;;;;;37.57;3.93;;;;;;;;;;5013250;28;20034;-81
2023/12/25 00:42:36;;;;;;;39.00;4.50;;;;;;;;;;5012800;28;20293;-80
2023/12/25 00:45:01;;;;;;;28.77;3.90;;;;;;;;;;5014234;28;20053;-81
2023/12/25 00:47:26;;;;;;;26.97;4.57;;;;;;;;;;5014346;28;20029;-81
2023/12/25 00:49:51;;;;;;;26.02;4.05;;;;;;;;;;5014419;28;20296;-81
2023/12/25 00:52:17;;;;;;;32.90;4.38;;;;;;;;;;4997065;28;20033;-79
2023/12/25 00:54:45;;;;;;;24.70;4.45;;;;;;;;;;5014898;28;20101;-80
2023/12/25 00:57:11;;;;;;;31.92;3.88;;;;;;;;;;5014821;28;20164;-79
2023/12/25 00:59:36;;;;;;;44.00;5.10;;;;;;;;;;5012654;28;20049;-83
2023/12/25 01:02:01;;;;;;;35.05;5.28;;;;;;;;;;5013862;28;20029;-80
2023/12/25 01:04:27;;;;;;;37.55;5.63;;;;;;;;;;5014280;28;20053;-85
2023/12/25 01:06:52;;;;;;;39.72;4.75;;;;;;;;;;5014874;28;20022;-83
2023/12/25 01:09:17;;;;;;;32.13;4.63;;;;;;;;;;5014545;28;20126;-82
2023/12/25 01:11:43;;;;;;;37.90;5.28;;;;;;;;;;5015105;28;20094;-82
2023/12/25 01:14:09;;;;;;;31.90;5.10;;;;;;;;;;5014366;28;20025;-81
2023/12/25 01:16:34;;;;;;;36.45;4.85;;;;;;;;;;5013998;28;20505;-82
2023/12/25 01:18:59;;;;;;;28.33;4.95;;;;;;;;;;5014357;28;20032;-82
2023/12/25 01:21:24;;;;;;;34.13;4.40;;;;;;;;;;5014591;28;20030;-80
2023/12/25 01:23:50;;;;;;;35.87;5.10;;;;;;;;;;5014142;28;20307;-83
2023/12/25 01:26:15;;;;;;;31.85;4.25;;;;;;;;;;5012824;28;20276;-81
2023/12/25 01:28:40;;;;;;;32.45;5.30;;;;;;;;;;5014147;28;20021;-83
2023/12/25 01:31:06;;;;;;;34.55;5.22;;;;;;;;;;5014083;28;20029;-82
2023/12/25 01:33:31;;;;;;;25.55;3.63;;;;;;;;;;5014020;28;20022;-80
2023/12/25 01:35:56;;;;;;;34.13;4.82;;;;;;;;;;5012596;28;20033;-79
2023/12/25 01:38:21;;;;;;;26.15;4.28;;;;;;;;;;5013831;28;20037;-79
2023/12/25 01:40:47;;;;;;;23.70;3.60;;;;;;;;;;4996248;28;20026;-80
2023/12/25 01:43:12;;;;;;;24.17;3.75;;;;;;;;;;5011962;28;20026;-79
2023/12/25 01:45:37;;;;;;;24.00;3.35;;;;;;;;;;5012649;28;20466;-81
2023/12/25 01:48:02;;;;;;;20.90;3.70;;;;;;;;;;5013800;28;20018;-80
2023/12/25 01:50:28;;;;;;;24.20;3.72;;;;;;;;;;5013935;28;20050;-82
2023/12/25 01:52:54;;;;;;;22.92;3.13;;;;;;;;;;5013802;28;20125;-80
2023/12/25 01:55:19;;;;;;;28.25;4.20;;;;;;;;;;5012301;28;20018;-81
2023/12/25 01:57:44;;;;;;;27.85;4.35;;;;;;;;;;5013242;28;20053;-78
2023/12/25 02:00:10;;;;;;;28.70;3.88;;;;;;;;;;5013590;28;20030;-80
2023/12/25 02:02:35;;;;;;;31.60;3.60;;;;;;;;;;5013202;28;20026;-81
2023/12/25 02:05:00;;;;;;;25.13;4.15;;;;;;;;;;5013704;28;20037;-80
2023/12/25 02:07:26;;;;;;;30.95;4.75;;;;;;;;;;5013390;28;20041;-80
2023/12/25 02:09:51;;;;;;;21.92;3.55;;;;;;;;;;5013557;28;20018;-80
2023/12/25 02:12:17;;;;;;;23.38;3.75;;;;;;;;;;5013621;28;20435;-80
2023/12/25 02:14:42;;;;;;;18.50;3.57;;;;;;;;;;5013793;28;20123;-79
2023/12/25 02:17:09;;;;;;;18.00;4.07;;;;;;;;;;5013265;28;20256;-79
2023/12/25 02:19:38;;;;;;;28.65;3.80;;;;;;;;;;5013126;28;20014;-79
2023/12/25 02:22:06;;;;;;;25.02;3.42;;;;;;;;;;5011563;28;20092;-79
2023/12/25 02:24:32;;;;;;;26.45;3.38;;;;;;;;;;5013056;28;20133;-78
2023/12/25 02:26:57;;;;;;;23.42;3.78;;;;;;;;;;5013743;28;20022;-79
2023/12/25 02:29:23;;;;;;;27.92;3.53;;;;;;;;;;5013378;28;20072;-79
2023/12/25 02:31:48;;;;;;;27.92;4.00;;;;;;;;;;5013140;28;20036;-79
2023/12/25 02:34:14;;;;;;;21.92;3.60;;;;;;;;;;5012775;28;20100;-79
2023/12/25 02:36:39;;;;;;;20.35;3.63;;;;;;;;;;5013047;28;20018;-80
2023/12/25 02:39:04;;;;;;;19.85;3.70;;;;;;;;;;5013164;28;20032;-79
2023/12/25 02:41:29;;;;;;;22.40;4.13;;;;;;;;;;5013337;28;20089;-78
2023/12/25 02:43:55;;;;;;;23.03;3.20;;;;;;;;;;5012954;28;20288;-80
2023/12/25 02:46:20;;;;;;;27.47;4.07;;;;;;;;;;5013110;28;20253;-79
2023/12/25 02:48:45;;;;;;;21.53;3.37;;;;;;;;;;5011404;28;20269;-79
2023/12/25 02:51:10;;;;;;;22.58;3.35;;;;;;;;;;5013141;28;20745;-79
2023/12/25 02:53:35;;;;;;;22.00;3.60;;;;;;;;;;5012435;28;20445;-79
2023/12/25 02:56:01;;;;;;;27.42;4.50;;;;;;;;;;5012780;28;20778;-79
2023/12/25 02:58:26;;;;;;;26.63;4.30;;;;;;;;;;5010962;28;20462;-78
2023/12/25 03:00:51;;;;;;;22.83;3.83;;;;;;;;;;5010860;28;20275;-78
2023/12/25 03:03:16;;;;;;;19.25;4.07;;;;;;;;;;5012459;28;20454;-78
2023/12/25 03:05:41;;;;;;;26.25;3.88;;;;;;;;;;5010846;28;20096;-78
2023/12/25 03:08:07;;;;;;;24.00;3.90;;;;;;;;;;5012405;28;20124;-79
2023/12/25 03:10:34;;;;;;;27.95;3.47;;;;;;;;;;5012121;28;20356;-78
2023/12/25 03:13:00;;;;;;;27.55;3.63;;;;;;;;;;5012299;28;20056;-79
2023/12/25 03:15:25;;;;;;;14.00;3.10;;;;;;;;;;5011439;28;20065;-80
2023/12/25 03:17:50;;;;;;;21.55;3.28;;;;;;;;;;5012332;28;20784;-79
2023/12/25 03:20:15;;;;;;;20.63;3.40;;;;;;;;;;5011855;28;20438;-79
2023/12/25 03:22:41;;;;;;;22.90;3.67;;;;;;;;;;5011821;28;20769;-78
2023/12/25 03:25:06;;;;;;;30.95;3.67;;;;;;;;;;5012206;28;20442;-80
2023/12/25 03:27:31;;;;;;;21.33;3.53;;;;;;;;;;5011897;28;20029;-79
2023/12/25 03:29:57;;;;;;;21.15;3.13;;;;;;;;;;5011916;28;20550;-80
2023/12/25 03:32:22;;;;;;;17.88;3.47;;;;;;;;;;5011734;28;20459;-80
2023/12/25 03:34:47;;;;;;;19.40;2.92;;;;;;;;;;5010913;28;20315;-79
2023/12/25 03:37:13;;;;;;;21.98;3.13;;;;;;;;;;5012077;28;20017;-79
2023/12/25 03:39:38;;;;;;;20.95;3.55;;;;;;;;;;5011782;28;20454;-79
2023/12/25 03:42:04;;;;;;;26.80;3.83;;;;;;;;;;5011936;28;20128;-80
2023/12/25 03:44:29;;;;;;;21.75;4.25;;;;;;;;;;5011617;28;20331;-79
2023/12/25 03:46:54;;;;;;;21.33;3.13;;;;;;;;;;5011773;28;20706;-78
2023/12/25 03:49:19;;;;;;;20.53;3.03;;;;;;;;;;5012055;28;20268;-80
2023/12/25 03:51:44;;;;;;;30.30;3.50;;;;;;;;;;5012331;28;20288;-79
2023/12/25 03:54:10;;;;;;;27.42;4.97;;;;;;;;;;5011650;28;20253;-79
2023/12/25 03:56:35;;;;;;;21.87;3.30;;;;;;;;;;5011730;28;20025;-79
2023/12/25 03:59:00;;;;;;;21.27;3.10;;;;;;;;;;5011561;28;20269;-79
2023/12/25 04:01:25;;;;;;;22.07;3.77;;;;;;;;;;5012428;28;20272;-78
2023/12/25 04:03:51;;;;;;;31.65;4.22;;;;;;;;;;5012286;28;20443;-79
2023/12/25 04:06:23;;;;;;;25.48;3.42;;;;;;;;;;5011921;28;20485;-79
2023/12/25 04:08:48;;;;;;;26.30;4.25;;;;;;;;;;5011073;28;20088;-78
2023/12/25 04:11:18;;;;;;;31.52;4.15;;;;;;;;;;5010336;28;20431;-78
2023/12/25 04:13:43;;;;;;;22.17;3.15;;;;;;;;;;5011524;28;20470;-80
2023/12/25 04:16:17;;;;;;;25.60;3.42;;;;;;;;;;4993548;28;20068;-79
2023/12/25 04:18:42;;;;;;;19.80;3.95;;;;;;;;;;5011873;28;20093;-78
2023/12/25 04:21:07;;;;;;;36.07;4.37;;;;;;;;;;5011493;28;20093;-78
2023/12/25 04:23:33;;;;;;;20.30;2.85;;;;;;;;;;5011325;28;20392;-80
2023/12/25 04:25:58;;;;;;;18.30;2.90;;;;;;;;;;5011352;28;20061;-79
2023/12/25 04:28:23;;;;;;;28.77;3.97;;;;;;;;;;5011457;28;20030;-81
2023/12/25 04:30:48;;;;;;;17.87;3.33;;;;;;;;;;5010966;28;20265;-81
2023/12/25 04:33:13;;;;;;;22.60;3.20;;;;;;;;;;5011248;28;20257;-79
2023/12/25 04:35:39;;;;;;;20.00;3.42;;;;;;;;;;5011606;28;20662;-80
2023/12/25 04:38:04;;;;;;;24.73;3.17;;;;;;;;;;5011510;28;20026;-81
2023/12/25 04:40:31;;;;;;;20.52;2.95;;;;;;;;;;5009869;28;20563;-81
2023/12/25 04:42:56;;;;;;;15.25;2.30;;;;;;;;;;5011560;28;20026;-79
2023/12/25 04:45:21;;;;;;;15.00;2.60;;;;;;;;;;5011117;28;20049;-80
2023/12/25 04:47:46;;;;;;;12.15;2.03;;;;;;;;;;5010809;28;20020;-80
2023/12/25 04:50:12;;;;;;;14.30;2.83;;;;;;;;;;5011155;28;20099;-81
2023/12/25 04:52:37;;;;;;;15.68;2.60;;;;;;;;;;5010969;28;20352;-80
2023/12/25 04:55:03;;;;;;;14.73;2.33;;;;;;;;;;5011257;28;20025;-79
2023/12/25 04:57:28;;;;;;;11.85;1.67;;;;;;;;;;5009682;28;20304;-80
2023/12/25 04:59:54;;;;;;;21.77;1.83;;;;;;;;;;5011057;28;20431;-79
2023/12/25 05:02:19;;;;;;;11.50;1.80;;;;;;;;;;4993048;28;20367;-78
2023/12/25 05:04:44;;;;;;;13.10;1.88;;;;;;;;;;5011310;28;20045;-81
2023/12/25 05:07:09;;;;;;;8.63;1.60;;;;;;;;;;5010747;28;20061;-80
2023/12/25 05:09:34;;;;;;;8.75;1.55;;;;;;;;;;5011122;28;20313;-79
2023/12/25 05:12:00;;;;;;;9.57;1.65;;;;;;;;;;5010766;28;20026;-80
2023/12/25 05:14:25;;;;;;;4.57;1.48;;;;;;;;;;5010957;28;20144;-81
2023/12/25 05:16:50;;;;;;;15.55;1.60;;;;;;;;;;5010937;28;20104;-79
2023/12/25 05:19:16;;;;;;;9.63;1.50;;;;;;;;;;5012410;28;20101;-80
2023/12/25 05:21:41;;;;;;;13.52;3.00;;;;;;;;;;5013299;28;20444;-80
2023/12/25 05:24:07;;;;;;;12.57;1.65;;;;;;;;;;5014072;28;20026;-80
2023/12/25 05:26:32;;;;;;;14.82;2.50;;;;;;;;;;5014356;28;20029;-80
2023/12/25 05:28:57;;;;;;;15.70;1.98;;;;;;;;;;5014197;28;20082;-79
2023/12/25 05:31:22;;;;;;;12.90;2.63;;;;;;;;;;5014523;28;20183;-80
2023/12/25 05:33:48;;;;;;;20.60;2.50;;;;;;;;;;5014140;28;20037;-80
2023/12/25 05:36:13;;;;;;;17.67;2.97;;;;;;;;;;5013811;28;20260;-80
2023/12/25 05:38:38;;;;;;;15.13;1.98;;;;;;;;;;5013819;28;20265;-79
2023/12/25 05:41:03;;;;;;;23.20;2.35;;;;;;;;;;5013788;28;20374;-79
2023/12/25 05:43:29;;;;;;;25.03;2.93;;;;;;;;;;5013160;28;20037;-79
2023/12/25 05:45:54;;;;;;;28.80;2.70;;;;;;;;;;5013539;28;20261;-79
2023/12/25 05:48:19;;;;;;;23.52;2.65;;;;;;;;;;5013449;28;20121;-79
2023/12/25 05:50:44;;;;;;;16.35;3.05;;;;;;;;;;5013339;28;20130;-79
2023/12/25 05:53:10;;;;;;;22.30;2.60;;;;;;;;;;5013566;28;20477;-79
2023/12/25 05:55:35;;;;;;;14.20;2.05;;;;;;;;;;5013268;28;20268;-79
2023/12/25 05:58:00;;;;;;;18.23;2.58;;;;;;;;;;5013184;28;20034;-79
2023/12/25 06:00:26;;;;;;;22.00;2.77;;;;;;;;;;5013191;28;20022;-79
2023/12/25 06:02:51;;;;;;;10.43;1.95;;;;;;;;;;5013144;28;20280;-79
2023/12/25 06:05:16;;;;;;;15.25;2.45;;;;;;;;;;5011267;28;20037;-78
2023/12/25 06:07:41;;;;;;;11.98;2.33;;;;;;;;;;5012882;28;20093;-79
2023/12/25 06:10:07;;;;;;;19.60;2.40;;;;;;;;;;5012940;28;20133;-79
2023/12/25 06:12:35;;;;;;;11.27;2.17;;;;;;;;;;5013076;28;20267;-79
2023/12/25 06:15:05;;;;;;;18.55;2.60;;;;;;;;;;5013451;28;20433;-79
2023/12/25 06:17:30;;;;;;;14.02;2.42;;;;;;;;;;5013387;28;20512;-79
2023/12/25 06:19:56;;;;;;;11.50;2.25;;;;;;;;;;5011692;28;20053;-79
2023/12/25 06:22:21;;;;;;;18.85;2.55;;;;;;;;;;5010756;28;20056;-79
2023/12/25 06:24:46;;;;;;;17.50;2.90;;;;;;;;;;5011152;28;20049;-80
2023/12/25 06:27:11;;;;;;;20.52;2.50;;;;;;;;;;5011375;28;20300;-80
2023/12/25 06:29:37;;;;;;;15.45;2.03;;;;;;;;;;5011189;28;20128;-80
2023/12/25 06:32:03;;;;;;;11.00;2.25;;;;;;;;;;5011735;28;20060;-79
2023/12/25 06:34:28;;;;;;;14.82;2.50;;;;;;;;;;5011902;28;20044;-80
2023/12/25 06:36:53;;;;;;;16.52;1.98;;;;;;;;;;5010998;28;20026;-81
2023/12/25 06:39:19;;;;;;;14.40;2.20;;;;;;;;;;5012393;28;20097;-79
2023/12/25 06:41:44;;;;;;;15.40;2.13;;;;;;;;;;5012101;28;20709;-80
2023/12/25 06:44:09;;;;;;;10.43;1.70;;;;;;;;;;5011945;28;20423;-80
2023/12/25 06:46:36;;;;;;;18.02;2.40;;;;;;;;;;5012029;28;20065;-81
2023/12/25 06:49:01;;;;;;;16.52;1.92;;;;;;;;;;5012277;28;20085;-80
2023/12/25 06:51:26;;;;;;;10.60;2.15;;;;;;;;;;5012513;28;20061;-81
2023/12/25 06:53:51;;;;;;;18.05;2.30;;;;;;;;;;5012158;28;20060;-82
2023/12/25 06:56:17;;;;;;;15.35;2.13;;;;;;;;;;5012106;28;20018;-80
2023/12/25 06:58:42;;;;;;;19.80;2.28;;;;;;;;;;5010829;28;20232;-81
2023/12/25 07:01:08;;;;;;;7.80;1.42;;;;;;;;;;5010838;28;20061;-79
2023/12/25 07:03:33;;;;;;;14.90;1.90;;;;;;;;;;5011939;28;20043;-79
2023/12/25 07:05:59;;;;;;;14.10;1.77;;;;;;;;;;5011058;28;20073;-79
2023/12/25 07:08:27;;;;;;;11.82;1.65;;;;;;;;;;5012132;28;20026;-79
2023/12/25 07:10:53;;;;;;;11.60;1.52;;;;;;;;;;5012110;28;20022;-79
2023/12/25 07:13:18;;;;;;;12.18;1.90;;;;;;;;;;5011522;28;20032;-80
2023/12/25 07:15:43;;;;;;;11.55;2.28;;;;;;;;;;5011476;28;20034;-80
2023/12/25 07:18:08;;;;;;;10.07;1.52;;;;;;;;;;5011914;28;20113;-80
2023/12/25 07:20:33;;;;;;;11.50;1.25;;;;;;;;;;5010538;28;20018;-78
2023/12/25 07:22:59;;;;;;;11.95;1.50;;;;;;;;;;5011718;28;20072;-78
2023/12/25 07:25:24;;;;;;;10.10;1.48;;;;;;;;;;5011615;28;20459;-79
2023/12/25 07:27:50;;;;;;;9.35;1.40;;;;;;;;;;5011410;28;20435;-79
2023/12/25 07:30:15;;;;;;;11.95;1.35;;;;;;;;;;5011627;28;20100;-80
2023/12/25 07:32:41;;;;;;;12.30;1.40;;;;;;;;;;5011571;28;20089;-79
2023/12/25 07:35:06;;;;;;;8.00;1.88;;;;;;;;;;5011238;28;20018;-78
2023/12/25 07:37:31;;;;;;;10.95;1.75;;;;;;;;;;5011376;28;20101;-78
2023/12/25 07:39:56;;;;;;;14.20;2.15;;;;;;;;;;5011076;28;20080;-78
2023/12/25 07:42:22;;;;;;;15.18;1.90;;;;;;;;;;5010557;28;20061;-77
2023/12/25 07:44:47;;;;;;;14.75;2.42;;;;;;;;;;5010969;28;20471;-80
2023/12/25 07:47:13;;;;;;;9.05;1.65;;;;;;;;;;5011358;28;20418;-80
2023/12/25 07:49:38;;;;;;;14.15;1.88;;;;;;;;;;5009437;28;20140;-81
2023/12/25 07:52:04;;;;;;;13.13;1.70;;;;;;;;;;5011199;28;20446;-80
2023/12/25 07:54:29;;;;;;;11.95;2.00;;;;;;;;;;5009733;28;20449;-79
2023/12/25 07:56:54;;;;;;;14.52;2.13;;;;;;;;;;5010907;28;20037;-78
2023/12/25 07:59:20;;;;;;;8.82;1.75;;;;;;;;;;5011525;28;20165;-77
2023/12/25 08:01:45;;;;;;;5.50;1.50;;;;;;;;;;5011113;28;20072;-83
2023/12/25 08:04:11;;;;;;;14.80;2.63;;;;;;;;;;5009623;28;20311;-78
2023/12/25 08:06:36;;;;;;;17.27;2.05;;;;;;;;;;5011208;28;20026;-79
2023/12/25 08:09:01;;;;;;;5.47;1.50;;;;;;;;;;5011276;28;20026;-78
2023/12/25 08:11:27;;;;;;;9.02;1.63;;;;;;;;;;5011455;28;20260;-78
2023/12/25 08:13:53;;;;;;;11.98;1.98;;;;;;;;;;5010802;28;20030;-78
2023/12/25 08:16:20;;;;;;;7.22;1.40;;;;;;;;;;5011133;28;20020;-78
2023/12/25 08:18:46;;;;;;;11.48;2.00;;;;;;;;;;5011418;28;20087;-77
2023/12/25 08:21:11;;;;;;;6.03;1.27;;;;;;;;;;5009338;28;20026;-81
2023/12/25 08:23:36;;;;;;;9.10;2.10;;;;;;;;;;5009511;28;20308;-75
2023/12/25 08:26:01;;;;;;;10.70;1.85;;;;;;;;;;5011199;28;20277;-76
2023/12/25 08:28:27;;;;;;;6.63;1.40;;;;;;;;;;5011039;28;20045;-77
2023/12/25 08:30:52;;;;;;;7.70;2.10;;;;;;;;;;5011081;28;20153;-77
2023/12/25 08:33:17;;;;;;;10.02;1.67;;;;;;;;;;5010532;28;20357;-78
2023/12/25 08:35:42;;;;;;;10.30;1.75;;;;;;;;;;5011036;28;20367;-77
2023/12/25 08:38:07;;;;;;;13.23;2.00;;;;;;;;;;5008984;28;20117;-77
2023/12/25 08:40:33;;;;;;;12.85;1.95;;;;;;;;;;5010843;28;20037;-79
2023/12/25 08:42:58;;;;;;;5.90;1.40;;;;;;;;;;5010738;28;20466;-77
2023/12/25 08:45:24;;;;;;;12.20;1.98;;;;;;;;;;5010322;28;20779;-76
2023/12/25 08:47:51;;;;;;;6.43;1.88;;;;;;;;;;5010755;28;20029;-77
2023/12/25 08:50:17;;;;;;;7.93;1.58;;;;;;;;;;5010571;28;20054;-77
2023/12/25 08:52:42;;;;;;;14.15;1.80;;;;;;;;;;5010136;28;20072;-77
2023/12/25 08:55:07;;;;;;;5.63;1.23;;;;;;;;;;5013283;28;20097;-77
2023/12/25 08:57:35;;;;;;;5.15;1.40;;;;;;;;;;5014249;28;20076;-77
2023/12/25 09:00:00;;;;;;;13.65;1.65;;;;;;;;;;5013820;28;20061;-79
2023/12/25 09:02:26;;;;;;;17.45;2.30;;;;;;;;;;5014101;28;20119;-77
2023/12/25 09:04:51;;;;;;;6.77;1.50;;;;;;;;;;5013819;28;20055;-79
2023/12/25 09:07:16;;;;;;;10.15;1.83;;;;;;;;;;5013610;28;20259;-79
2023/12/25 09:09:42;;;;;;;12.10;1.65;;;;;;;;;;5013535;28;20052;-79
2023/12/25 09:12:07;;;;;;;10.55;1.92;;;;;;;;;;5013751;28;20036;-77
2023/12/25 09:14:32;;;;;;;8.77;1.58;;;;;;;;;;5013555;28;20100;-75
2023/12/25 09:16:58;;;;;;;9.63;1.73;;;;;;;;;;5013931;28;20033;-74
2023/12/25 09:19:23;;;;;;;15.07;1.60;;;;;;;;;;5013679;28;20113;-77
2023/12/25 09:21:48;;;;;;;9.97;1.47;;;;;;;;;;5013213;28;20436;-74
2023/12/25 09:24:14;;;;;;;8.23;1.27;;;;;;;;;;5013847;28;20705;-74
2023/12/25 09:26:39;;;;;;;10.05;1.80;;;;;;;;;;5013012;28;20367;-75
2023/12/25 09:29:04;;;;;;;10.63;1.50;;;;;;;;;;5012423;28;20339;-78
2023/12/25 09:31:29;;;;;;;5.18;1.30;;;;;;;;;;5013414;28;20017;-80
2023/12/25 09:33:55;;;;;;;5.53;1.35;;;;;;;;;;5013093;28;20099;-77
2023/12/25 09:36:20;;;;;;;7.37;1.70;;;;;;;;;;5013244;28;20022;-79
2023/12/25 09:38:45;;;;;;;11.55;1.80;;;;;;;;;;5013170;28;20334;-79
2023/12/25 09:41:11;;;;;;;9.17;1.70;;;;;;;;;;5013285;28;20139;-78
2023/12/25 09:43:41;;;;;;;4.95;1.35;;;;;;;;;;5012671;28;20291;-76
2023/12/25 09:46:09;;;;;;;11.73;1.65;;;;;;;;;;5012822;28;20045;-76
2023/12/25 09:48:35;;;;;;;7.32;1.33;;;;;;;;;;5012782;28;20022;-76
2023/12/25 09:51:03;;;;;;;9.45;2.30;;;;;;;;;;5012527;28;20046;-77
2023/12/25 09:53:28;;;;;;;8.15;1.30;;;;;;;;;;5011423;28;20135;-77
2023/12/25 09:55:54;;;;;;;6.50;1.40;;;;;;;;;;5012837;28;20149;-77
2023/12/25 09:58:20;;;;;;;7.97;1.80;;;;;;;;;;5012924;28;20026;-76
2023/12/25 10:00:46;;;;;;;9.68;1.48;;;;;;;;;;5012861;28;20052;-77
2023/12/25 10:03:11;;;;;;;7.88;1.50;;;;;;;;;;5012893;28;20082;-76
2023/12/25 10:05:37;;;;;;;6.15;1.33;;;;;;;;;;5010716;28;20030;-74
2023/12/25 10:08:02;;;;;;;9.57;1.50;;;;;;;;;;5011206;28;20022;-76
2023/12/25 10:10:30;;;;;;;9.20;1.60;;;;;;;;;;5012226;28;20273;-76
2023/12/25 10:12:56;;;;;;;8.35;1.50;;;;;;;;;;5012375;28;20018;-75
2023/12/25 10:15:22;;;;;;;6.18;1.52;;;;;;;;;;5012394;28;20080;-75
2023/12/25 10:17:48;;;;;;;6.97;1.60;;;;;;;;;;5012386;28;20026;-76
2023/12/25 10:20:17;;;;;;;7.07;1.50;;;;;;;;;;5012496;28;20030;-76
2023/12/25 10:22:43;;;;;;;4.65;1.20;;;;;;;;;;5012608;28;20343;-76
2023/12/25 10:25:09;;;;;;;9.52;1.85;;;;;;;;;;5012542;28;20026;-76
2023/12/25 10:27:36;;;;;;;5.55;1.13;;;;;;;;;;5012335;28;20022;-76
2023/12/25 10:30:03;;;;;;;4.90;1.27;;;;;;;;;;5010925;28;20501;-77
2023/12/25 10:32:28;;;;;;;5.90;1.50;;;;;;;;;;5012107;28;20033;-77
2023/12/25 10:35:09;;;;;;;4.80;1.50;;;;;;;;;;5011911;28;20400;-79
2023/12/25 10:37:36;;;;;;;7.93;1.33;;;;;;;;;;5011983;28;20095;-78
2023/12/25 10:40:01;;;;;;;17.75;2.53;;;;;;;;;;5010837;28;20414;-79
2023/12/25 10:42:26;;;;;;;5.97;1.35;;;;;;;;;;5011961;28;20159;-78
2023/12/25 10:44:51;;;;;;;6.88;1.05;;;;;;;;;;5010297;28;20458;-80
2023/12/25 10:47:17;;;;;;;5.55;1.02;;;;;;;;;;5011655;28;20382;-77
2023/12/25 10:49:43;;;;;;;3.33;1.13;;;;;;;;;;5011326;28;20370;-78
2023/12/25 10:52:09;;;;;;;3.10;1.08;;;;;;;;;;5010604;28;20117;-78
2023/12/25 10:54:36;;;;;;;9.25;1.33;;;;;;;;;;5011788;28;20053;-78
2023/12/25 10:57:03;;;;;;;5.82;1.50;;;;;;;;;;5009953;28;20044;-77
2023/12/25 10:59:33;;;;;;;8.30;2.13;;;;;;;;;;5011582;28;20030;-77
2023/12/25 11:02:00;;;;;;;3.30;1.10;;;;;;;;;;5011219;28;20089;-81
2023/12/25 11:04:26;;;;;;;11.02;1.30;;;;;;;;;;5011500;28;20122;-76
2023/12/25 11:06:52;;;;;;;12.15;1.67;;;;;;;;;;5010150;28;20022;-78
2023/12/25 11:09:19;;;;;;;5.78;1.27;;;;;;;;;;5010379;28;20475;-78
2023/12/25 11:11:45;;;;;;;9.60;2.53;;;;;;;;;;5011582;28;20041;-79
2023/12/25 11:14:11;;;;;;;8.38;1.77;;;;;;;;;;5011156;28;20106;-78
2023/12/25 11:16:36;;;;;;;10.00;1.90;;;;;;;;;;5009500;28;20088;-78
2023/12/25 11:19:02;;;;;;;11.02;2.00;;;;;;;;;;5010074;28;20032;-78
2023/12/25 11:21:28;;;;;;;5.82;1.25;;;;;;;;;;5011183;28;20018;-77
2023/12/25 11:23:54;;;;;;;8.25;1.75;;;;;;;;;;5011512;28;20029;-77
2023/12/25 11:26:22;;;;;;;6.88;1.70;;;;;;;;;;5011730;28;20351;-76
2023/12/25 11:28:55;;;;;;;5.82;2.55;;;;;;;;;;5011605;28;20021;-74
2023/12/25 11:31:21;;;;;;;14.52;1.83;;;;;;;;;;5011704;28;20029;-75
2023/12/25 11:33:46;;;;;;;7.20;1.30;;;;;;;;;;5011301;28;20070;-76
2023/12/25 11:36:13;;;;;;;9.63;1.60;;;;;;;;;;5010114;28;20037;-75
2023/12/25 11:38:40;;;;;;;6.47;1.42;;;;;;;;;;5011492;28;20323;-77
2023/12/25 11:41:05;;;;;;;12.27;2.00;;;;;;;;;;5010638;28;20026;-75
2023/12/25 11:43:31;;;;;;;6.45;1.33;;;;;;;;;;5011585;28;20030;-76
2023/12/25 11:45:57;;;;;;;9.10;2.05;;;;;;;;;;5009769;28;20367;-77
2023/12/25 11:48:23;;;;;;;6.90;1.38;;;;;;;;;;5009530;28;20026;-75
2023/12/25 11:50:57;;;;;;;13.43;2.53;;;;;;;;;;5011057;28;20361;-75
2023/12/25 11:53:36;;;;;;;15.00;2.50;;;;;;;;;;5011177;28;20025;-75
2023/12/25 11:56:02;;;;;;;8.73;1.65;;;;;;;;;;5010892;28;20022;-76
2023/12/25 11:58:28;;;;;;;7.35;1.67;;;;;;;;;;5009710;28;20025;-75
2023/12/25 12:00:54;;;;;;;12.18;1.77;;;;;;;;;;5009586;28;20339;-76
2023/12/25 12:03:19;;;;;;;11.20;1.80;;;;;;;;;;5010453;28;20053;-75
2023/12/25 12:05:45;;;;;;;11.43;1.88;;;;;;;;;;5010483;28;20026;-75
2023/12/25 12:08:10;;;;;;;7.13;1.52;;;;;;;;;;5010598;28;20446;-75
2023/12/25 12:10:35;;;;;;;10.85;1.73;;;;;;;;;;5010297;28;20037;-76
2023/12/25 12:13:01;;;;;;;8.05;1.40;;;;;;;;;;5010387;28;20426;-77
2023/12/25 12:15:26;;;;;;;6.90;1.38;;;;;;;;;;5010513;28;20040;-74
2023/12/25 12:17:51;;;;;;;5.78;1.55;;;;;;;;;;5010435;28;20414;-75
2023/12/25 12:20:17;;;;;;;5.18;1.48;;;;;;;;;;5008986;28;20030;-76
2023/12/25 12:22:42;;;;;;;6.43;1.58;;;;;;;;;;5010548;28;20117;-78
2023/12/25 12:25:13;;;;;;;11.43;2.45;;;;;;;;;;5010213;28;20443;-77
2023/12/25 12:27:39;;;;;;;5.97;1.55;;;;;;;;;;5010662;28;20458;-77
2023/12/25 12:30:06;;;;;;;10.30;2.00;;;;;;;;;;5014054;28;20108;-77
2023/12/25 12:32:31;;;;;;;12.13;1.75;;;;;;;;;;5014830;28;20037;-77
2023/12/25 12:34:58;;;;;;;9.45;1.52;;;;;;;;;;5014779;28;20499;-77
2023/12/25 12:37:24;;;;;;;4.57;1.33;;;;;;;;;;5014764;28;20041;-79
2023/12/25 12:39:50;;;;;;;12.48;1.58;;;;;;;;;;5013997;28;20104;-77
2023/12/25 12:42:15;;;;;;;11.02;1.50;;;;;;;;;;5014633;28;20459;-75
2023/12/25 12:44:46;;;;;;;5.75;1.73;;;;;;;;;;5014888;28;20033;-76
2023/12/25 12:47:11;;;;;;;10.10;2.17;;;;;;;;;;5014729;28;20070;-76
2023/12/25 12:49:36;;;;;;;11.73;1.70;;;;;;;;;;5014416;28;20478;-76
2023/12/25 12:52:02;;;;;;;4.97;1.60;;;;;;;;;;5013872;28;20442;-77
2023/12/25 12:54:27;;;;;;;7.53;1.20;;;;;;;;;;5012720;28;20728;-79
2023/12/25 12:56:52;;;;;;;8.90;2.20;;;;;;;;;;5012258;28;20014;-77
2023/12/25 12:59:18;;;;;;;10.20;1.65;;;;;;;;;;5014473;28;20121;-76
2023/12/25 13:01:43;;;;;;;17.00;1.95;;;;;;;;;;5014373;28;20030;-76
2023/12/25 13:04:08;;;;;;;5.28;1.25;;;;;;;;;;5013958;28;20411;-76
2023/12/25 13:06:33;;;;;;;9.23;1.70;;;;;;;;;;5013612;28;20022;-78
2023/12/25 13:08:59;;;;;;;6.30;1.20;;;;;;;;;;5013752;28;20097;-77
2023/12/25 13:11:25;;;;;;;10.43;1.35;;;;;;;;;;5013857;28;20439;-76
2023/12/25 13:13:51;;;;;;;8.00;1.55;;;;;;;;;;5012732;28;20382;-77
2023/12/25 13:16:18;;;;;;;5.38;1.60;;;;;;;;;;5013626;28;20070;-77
2023/12/25 13:18:44;;;;;;;5.28;1.17;;;;;;;;;;5013746;28;20041;-77
2023/12/25 13:21:09;;;;;;;4.55;1.10;;;;;;;;;;5013791;28;20053;-78
2023/12/25 13:23:35;;;;;;;8.70;1.40;;;;;;;;;;5011844;28;20036;-77
2023/12/25 13:26:00;;;;;;;6.82;1.00;;;;;;;;;;5013435;28;20405;-77
2023/12/25 13:28:25;;;;;;;6.82;1.40;;;;;;;;;;5013383;28;20459;-78
2023/12/25 13:30:50;;;;;;;7.70;1.48;;;;;;;;;;5013839;28;20026;-77
2023/12/25 13:33:16;;;;;;;3.25;1.15;;;;;;;;;;5013377;28;20426;-76
2023/12/25 13:35:41;;;;;;;7.53;1.33;;;;;;;;;;5013599;28;20022;-76
2023/12/25 13:38:06;;;;;;;3.40;1.10;;;;;;;;;;5013567;28;20022;-78
2023/12/25 13:40:32;;;;;;;4.47;1.30;;;;;;;;;;5011881;28;20028;-77
2023/12/25 13:42:57;;;;;;;5.90;1.25;;;;;;;;;;5012984;28;20041;-76
2023/12/25 13:45:22;;;;;;;6.73;1.70;;;;;;;;;;5013265;28;20026;-77
2023/12/25 13:47:47;;;;;;;3.80;1.27;;;;;;;;;;5012208;28;20729;-76
2023/12/25 13:50:12;;;;;;;5.47;1.48;;;;;;;;;;5012947;28;20351;-77
2023/12/25 13:52:38;;;;;;;3.33;1.38;;;;;;;;;;5011846;28;20048;-76
2023/12/25 13:55:03;;;;;;;9.05;1.33;;;;;;;;;;5013440;28;20163;-78
2023/12/25 13:57:28;;;;;;;4.28;1.00;;;;;;;;;;5012087;28;20026;-79
2023/12/25 13:59:54;;;;;;;6.55;1.33;;;;;;;;;;5011536;28;20101;-77
2023/12/25 14:02:19;;;;;;;6.15;1.50;;;;;;;;;;5012419;28;20105;-77
2023/12/25 14:04:44;;;;;;;3.78;1.10;;;;;;;;;;5012967;28;20057;-77
2023/12/25 14:07:10;;;;;;;4.63;1.10;;;;;;;;;;5013108;28;20026;-76
2023/12/25 14:09:35;;;;;;;3.65;1.23;;;;;;;;;;5011783;28;20363;-76
2023/12/25 14:12:00;;;;;;;4.75;1.63;;;;;;;;;;5013459;28;20390;-74
2023/12/25 14:14:26;;;;;;;3.20;1.23;;;;;;;;;;5011715;28;20029;-78
2023/12/25 14:16:51;;;;;;;4.72;1.23;;;;;;;;;;5012825;28;20029;-81
2023/12/25 14:19:17;;;;;;;4.78;1.52;;;;;;;;;;5011927;28;20037;-78
2023/12/25 14:21:42;;;;;;;7.28;2.55;;;;;;;;;;5011527;28;20025;-79
2023/12/25 14:24:07;;;;;;;6.85;2.20;;;;;;;;;;5011533;28;20117;-77